sensor_id;sensor_type;location;lat;lon;timestamp;pressure;altitude;pressure_sealevel;temperature;humidity
11190;BME280;5651;50.926;4.718;2022-08-03T00:01:58;101439.66;;;20.29;69.28
11190;BME280;5651;50.926;4.718;2022-08-03T00:04:24;101443.38;;;20.23;67.62
11190;BME280;5651;50.926;4.718;2022-08-03T00:06:57;101439.91;;;20.21;68.58
11190;BME280;5651;50.926;4.718;2022-08-03T00:09:22;101441.81;;;20.18;68.79
11190;BME280;5651;50.926;4.718;2022-08-03T00:11:48;101437.56;;;20.14;69.37
11190;BME280;5651;50.926;4.718;2022-08-03T00:14:14;101439.50;;;20.08;69.29
11190;BME280;5651;50.926;4.718;2022-08-03T00:16:39;101439.66;;;20.04;69.36
11190;BME280;5651;50.926;4.718;2022-08-03T00:19:05;101444.22;;;19.99;71.15
11190;BME280;5651;50.926;4.718;2022-08-03T00:21:31;101442.63;;;19.94;70.49
11190;BME280;5651;50.926;4.718;2022-08-03T00:23:57;101438.34;;;19.90;70.46
11190;BME280;5651;50.926;4.718;2022-08-03T00:26:22;101443.75;;;19.87;70.80
11190;BME280;5651;50.926;4.718;2022-08-03T00:28:49;101437.72;;;19.82;70.11
11190;BME280;5651;50.926;4.718;2022-08-03T00:31:15;101442.25;;;19.78;70.56
11190;BME280;5651;50.926;4.718;2022-08-03T00:33:41;101437.13;;;19.74;68.51
11190;BME280;5651;50.926;4.718;2022-08-03T00:36:07;101439.00;;;19.70;68.04
11190;BME280;5651;50.926;4.718;2022-08-03T00:38:33;101433.81;;;19.67;67.01
11190;BME280;5651;50.926;4.718;2022-08-03T00:40:58;101431.16;;;19.67;69.15
11190;BME280;5651;50.926;4.718;2022-08-03T00:43:25;101432.13;;;19.64;68.40
11190;BME280;5651;50.926;4.718;2022-08-03T00:45:53;101424.28;;;19.61;67.62
11190;BME280;5651;50.926;4.718;2022-08-03T00:48:19;101420.78;;;19.61;68.27
11190;BME280;5651;50.926;4.718;2022-08-03T00:50:45;101421.75;;;19.58;68.34
11190;BME280;5651;50.926;4.718;2022-08-03T00:53:12;101419.13;;;19.58;69.39
11190;BME280;5651;50.926;4.718;2022-08-03T00:55:40;101412.16;;;19.56;68.28
11190;BME280;5651;50.926;4.718;2022-08-03T00:58:07;101413.09;;;19.53;68.89
11190;BME280;5651;50.926;4.718;2022-08-03T01:00:34;101411.41;;;19.52;70.12
11190;BME280;5651;50.926;4.718;2022-08-03T01:03:01;101413.22;;;19.50;69.85
11190;BME280;5651;50.926;4.718;2022-08-03T01:05:28;101413.31;;;19.47;71.30
11190;BME280;5651;50.926;4.718;2022-08-03T01:13:56;101419.84;;;19.37;70.73
11190;BME280;5651;50.926;4.718;2022-08-03T01:16:33;101415.53;;;19.32;70.49
11190;BME280;5651;50.926;4.718;2022-08-03T01:19:15;101402.44;;;19.29;69.65
11190;BME280;5651;50.926;4.718;2022-08-03T01:28:17;101407.00;;;19.24;69.08
11190;BME280;5651;50.926;4.718;2022-08-03T01:30:45;101409.69;;;19.23;69.02
11190;BME280;5651;50.926;4.718;2022-08-03T01:33:16;101403.53;;;19.22;67.80
11190;BME280;5651;50.926;4.718;2022-08-03T01:36:10;101406.09;;;19.25;68.92
11190;BME280;5651;50.926;4.718;2022-08-03T01:38:43;101404.34;;;19.24;69.37
11190;BME280;5651;50.926;4.718;2022-08-03T01:41:16;101399.03;;;19.26;71.45
11190;BME280;5651;50.926;4.718;2022-08-03T01:43:45;101395.59;;;19.22;67.82
11190;BME280;5651;50.926;4.718;2022-08-03T01:46:16;101392.16;;;19.20;67.28
11190;BME280;5651;50.926;4.718;2022-08-03T01:48:44;101395.59;;;19.22;67.33
11190;BME280;5651;50.926;4.718;2022-08-03T01:51:11;101397.25;;;19.26;71.04
11190;BME280;5651;50.926;4.718;2022-08-03T01:53:39;101384.94;;;19.25;67.67
11190;BME280;5651;50.926;4.718;2022-08-03T01:56:08;101390.13;;;19.28;69.52
11190;BME280;5651;50.926;4.718;2022-08-03T01:58:35;101384.66;;;19.35;70.53
11190;BME280;5651;50.926;4.718;2022-08-03T02:01:02;101384.66;;;19.35;67.94
11190;BME280;5651;50.926;4.718;2022-08-03T02:03:30;101388.13;;;19.37;68.69
11190;BME280;5651;50.926;4.718;2022-08-03T02:05:59;101389.03;;;19.36;68.31
11190;BME280;5651;50.926;4.718;2022-08-03T02:08:26;101385.50;;;19.35;69.06
11190;BME280;5651;50.926;4.718;2022-08-03T02:10:55;101391.81;;;19.31;68.94
11190;BME280;5651;50.926;4.718;2022-08-03T02:13:23;101390.09;;;19.30;69.65
11190;BME280;5651;50.926;4.718;2022-08-03T02:15:50;101387.59;;;19.25;69.27
11190;BME280;5651;50.926;4.718;2022-08-03T02:18:18;101385.91;;;19.23;69.91
11190;BME280;5651;50.926;4.718;2022-08-03T02:20:45;101387.78;;;19.19;70.26
11190;BME280;5651;50.926;4.718;2022-08-03T02:23:14;101391.41;;;19.15;70.06
11190;BME280;5651;50.926;4.718;2022-08-03T02:25:56;101383.56;;;19.13;70.37
11190;BME280;5651;50.926;4.718;2022-08-03T02:28:30;101383.69;;;19.09;70.44
11190;BME280;5651;50.926;4.718;2022-08-03T02:30:57;101382.94;;;19.05;69.74
11190;BME280;5651;50.926;4.718;2022-08-03T02:33:33;101376.94;;;19.00;68.91
11190;BME280;5651;50.926;4.718;2022-08-03T02:36:01;101379.63;;;18.98;68.97
11190;BME280;5651;50.926;4.718;2022-08-03T02:38:32;101380.56;;;18.96;70.55
11190;BME280;5651;50.926;4.718;2022-08-03T02:40:59;101378.91;;;18.93;69.93
11190;BME280;5651;50.926;4.718;2022-08-03T02:43:28;101374.53;;;18.91;70.39
11190;BME280;5651;50.926;4.718;2022-08-03T02:45:54;101367.66;;;18.87;70.51
11190;BME280;5651;50.926;4.718;2022-08-03T02:48:27;101361.59;;;18.83;70.54
11190;BME280;5651;50.926;4.718;2022-08-03T02:50:57;101360.78;;;18.81;71.38
11190;BME280;5651;50.926;4.718;2022-08-03T02:53:25;101365.22;;;18.79;71.97
11190;BME280;5651;50.926;4.718;2022-08-03T02:55:52;101366.31;;;18.72;69.91
11190;BME280;5651;50.926;4.718;2022-08-03T02:58:20;101373.41;;;18.71;69.20
11190;BME280;5651;50.926;4.718;2022-08-03T03:00:49;101368.97;;;18.72;69.74
11190;BME280;5651;50.926;4.718;2022-08-03T03:03:16;101365.50;;;18.69;68.99
11190;BME280;5651;50.926;4.718;2022-08-03T03:05:43;101357.56;;;18.69;69.39
11190;BME280;5651;50.926;4.718;2022-08-03T03:08:13;101363.69;;;18.72;70.82
11190;BME280;5651;50.926;4.718;2022-08-03T03:10:39;101364.66;;;18.69;71.95
11190;BME280;5651;50.926;4.718;2022-08-03T03:13:06;101363.88;;;18.65;68.10
11190;BME280;5651;50.926;4.718;2022-08-03T03:15:34;101354.91;;;18.71;71.54
11190;BME280;5651;50.926;4.718;2022-08-03T03:18:01;101354.94;;;18.69;70.53
11190;BME280;5651;50.926;4.718;2022-08-03T03:20:28;101359.31;;;18.71;71.77
11190;BME280;5651;50.926;4.718;2022-08-03T03:22:55;101359.44;;;18.66;72.90
11190;BME280;5651;50.926;4.718;2022-08-03T03:25:23;101356.91;;;18.63;74.63
11190;BME280;5651;50.926;4.718;2022-08-03T03:27:49;101358.88;;;18.56;71.95
11190;BME280;5651;50.926;4.718;2022-08-03T03:30:15;101353.72;;;18.51;72.74
11190;BME280;5651;50.926;4.718;2022-08-03T03:32:41;101357.31;;;18.49;74.09
11190;BME280;5651;50.926;4.718;2022-08-03T03:35:08;101349.59;;;18.43;72.17
11190;BME280;5651;50.926;4.718;2022-08-03T03:37:34;101359.41;;;18.37;70.00
11190;BME280;5651;50.926;4.718;2022-08-03T03:40:00;101359.41;;;18.37;71.46
11190;BME280;5651;50.926;4.718;2022-08-03T03:42:26;101356.91;;;18.33;71.12
11190;BME280;5651;50.926;4.718;2022-08-03T03:44:52;101357.00;;;18.30;70.90
11190;BME280;5651;50.926;4.718;2022-08-03T03:47:18;101346.44;;;18.30;68.45
11190;BME280;5651;50.926;4.718;2022-08-03T03:49:44;101356.84;;;18.34;68.23
11190;BME280;5651;50.926;4.718;2022-08-03T03:52:10;101353.13;;;18.42;71.55
11190;BME280;5651;50.926;4.718;2022-08-03T03:54:43;101347.00;;;18.41;70.42
11190;BME280;5651;50.926;4.718;2022-08-03T03:57:10;101353.84;;;18.47;72.73
11190;BME280;5651;50.926;4.718;2022-08-03T03:59:37;101353.84;;;18.47;72.44
11190;BME280;5651;50.926;4.718;2022-08-03T04:02:08;101352.16;;;18.44;71.55
11190;BME280;5651;50.926;4.718;2022-08-03T04:04:35;101354.88;;;18.43;72.16
11190;BME280;5651;50.926;4.718;2022-08-03T04:07:22;101357.56;;;18.41;74.03
11190;BME280;5651;50.926;4.718;2022-08-03T04:10:17;101354.22;;;18.34;74.42
11190;BME280;5651;50.926;4.718;2022-08-03T04:13:08;101358.72;;;18.31;76.88
11190;BME280;5651;50.926;4.718;2022-08-03T04:15:37;101352.75;;;18.24;73.72
11190;BME280;5651;50.926;4.718;2022-08-03T04:18:06;101357.22;;;18.22;73.97
11190;BME280;5651;50.926;4.718;2022-08-03T04:20:34;101359.94;;;18.19;74.91
11190;BME280;5651;50.926;4.718;2022-08-03T04:23:02;101356.56;;;18.14;73.42
11190;BME280;5651;50.926;4.718;2022-08-03T04:25:32;101359.03;;;18.20;76.93
11190;BME280;5651;50.926;4.718;2022-08-03T04:28:00;101365.88;;;18.27;82.13
11190;BME280;5651;50.926;4.718;2022-08-03T04:30:27;101363.94;;;18.34;80.54
11190;BME280;5651;50.926;4.718;2022-08-03T04:32:58;101361.38;;;18.31;71.82
11190;BME280;5651;50.926;4.718;2022-08-03T04:35:28;101357.44;;;18.46;73.06
11190;BME280;5651;50.926;4.718;2022-08-03T04:38:00;101363.47;;;18.49;74.17
11190;BME280;5651;50.926;4.718;2022-08-03T04:40:33;101358.22;;;18.48;74.26
11190;BME280;5651;50.926;4.718;2022-08-03T04:42:59;101370.50;;;18.49;73.57
11190;BME280;5651;50.926;4.718;2022-08-03T04:45:27;101369.69;;;18.47;74.76
11190;BME280;5651;50.926;4.718;2022-08-03T04:47:54;101375.91;;;18.46;75.05
11190;BME280;5651;50.926;4.718;2022-08-03T04:50:20;101375.06;;;18.44;76.19
11190;BME280;5651;50.926;4.718;2022-08-03T04:52:47;101374.25;;;18.42;75.53
11190;BME280;5651;50.926;4.718;2022-08-03T04:55:30;101374.28;;;18.40;75.99
11190;BME280;5651;50.926;4.718;2022-08-03T04:57:58;101384.06;;;18.36;75.13
11190;BME280;5651;50.926;4.718;2022-08-03T05:00:24;101388.44;;;18.37;76.69
11190;BME280;5651;50.926;4.718;2022-08-03T05:02:50;101386.66;;;18.38;78.38
11190;BME280;5651;50.926;4.718;2022-08-03T05:05:16;101379.63;;;18.39;76.22
11190;BME280;5651;50.926;4.718;2022-08-03T05:07:42;101381.44;;;18.36;73.30
11190;BME280;5651;50.926;4.718;2022-08-03T05:10:10;101385.69;;;18.42;73.39
11190;BME280;5651;50.926;4.718;2022-08-03T05:12:36;101389.09;;;18.46;72.45
11190;BME280;5651;50.926;4.718;2022-08-03T05:15:02;101391.03;;;18.69;84.28
11190;BME280;5651;50.926;4.718;2022-08-03T05:17:29;101393.59;;;18.72;82.06
11190;BME280;5651;50.926;4.718;2022-08-03T05:19:55;101396.91;;;18.79;79.72
11190;BME280;5651;50.926;4.718;2022-08-03T05:22:21;101401.56;;;19.00;81.57
11190;BME280;5651;50.926;4.718;2022-08-03T05:24:48;101394.47;;;19.03;77.13
11190;BME280;5651;50.926;4.718;2022-08-03T05:27:14;101397.72;;;19.11;76.70
11190;BME280;5651;50.926;4.718;2022-08-03T05:29:47;101406.09;;;19.25;75.58
11190;BME280;5651;50.926;4.718;2022-08-03T05:32:13;101399.44;;;19.40;81.73
11190;BME280;5651;50.926;4.718;2022-08-03T05:34:39;101406.00;;;19.55;87.47
11190;BME280;5651;50.926;4.718;2022-08-03T05:37:05;101406.69;;;19.60;88.82
11190;BME280;5651;50.926;4.718;2022-08-03T05:39:34;101401.97;;;19.70;89.79
11190;BME280;5651;50.926;4.718;2022-08-03T05:42:01;101396.31;;;19.81;86.97
11190;BME280;5651;50.926;4.718;2022-08-03T05:44:27;101401.50;;;19.86;83.61
11190;BME280;5651;50.926;4.718;2022-08-03T05:46:53;101396.50;;;20.02;81.82
11190;BME280;5651;50.926;4.718;2022-08-03T05:49:19;101403.38;;;20.07;82.86
11190;BME280;5651;50.926;4.718;2022-08-03T05:51:44;101397.53;;;20.23;81.07
11190;BME280;5651;50.926;4.718;2022-08-03T05:54:10;101401.78;;;20.27;86.09
11190;BME280;5651;50.926;4.718;2022-08-03T05:56:36;101399.56;;;20.40;79.28
11190;BME280;5651;50.926;4.718;2022-08-03T05:59:02;101395.59;;;20.52;79.89
11190;BME280;5651;50.926;4.718;2022-08-03T06:01:28;101395.25;;;20.61;79.83
11190;BME280;5651;50.926;4.718;2022-08-03T06:03:56;101399.31;;;20.70;83.29
11190;BME280;5651;50.926;4.718;2022-08-03T06:06:22;101394.84;;;20.72;80.84
11190;BME280;5651;50.926;4.718;2022-08-03T06:08:48;101397.22;;;20.80;81.22
11190;BME280;5651;50.926;4.718;2022-08-03T06:11:14;101395.13;;;20.88;82.26
11190;BME280;5651;50.926;4.718;2022-08-03T06:13:41;101397.66;;;20.91;81.16
11190;BME280;5651;50.926;4.718;2022-08-03T06:16:07;101399.88;;;21.02;81.82
11190;BME280;5651;50.926;4.718;2022-08-03T06:18:34;101387.88;;;21.15;82.40
11190;BME280;5651;50.926;4.718;2022-08-03T06:21:00;101398.28;;;21.20;81.71
11190;BME280;5651;50.926;4.718;2022-08-03T06:23:26;101391.91;;;21.24;81.62
11190;BME280;5651;50.926;4.718;2022-08-03T06:25:52;101405.44;;;21.40;80.53
11190;BME280;5651;50.926;4.718;2022-08-03T06:28:17;101397.34;;;21.43;79.28
11190;BME280;5651;50.926;4.718;2022-08-03T06:30:44;101396.03;;;21.53;77.54
11190;BME280;5651;50.926;4.718;2022-08-03T06:33:10;101404.41;;;21.65;79.67
11190;BME280;5651;50.926;4.718;2022-08-03T06:35:36;101403.22;;;21.72;76.83
11190;BME280;5651;50.926;4.718;2022-08-03T06:38:01;101405.09;;;21.91;78.59
11190;BME280;5651;50.926;4.718;2022-08-03T06:40:27;101405.63;;;21.99;76.08
11190;BME280;5651;50.926;4.718;2022-08-03T06:42:57;101401.06;;;22.03;77.09
11190;BME280;5651;50.926;4.718;2022-08-03T06:45:24;101402.44;;;22.11;74.82
11190;BME280;5651;50.926;4.718;2022-08-03T06:48:19;101402.63;;;22.27;74.39
11190;BME280;5651;50.926;4.718;2022-08-03T06:50:45;101413.34;;;22.45;73.47
11190;BME280;5651;50.926;4.718;2022-08-03T06:53:10;101417.63;;;22.49;74.28
11190;BME280;5651;50.926;4.718;2022-08-03T06:55:36;101408.56;;;22.53;75.84
11190;BME280;5651;50.926;4.718;2022-08-03T06:58:02;101404.56;;;22.63;72.99
11190;BME280;5651;50.926;4.718;2022-08-03T07:00:28;101415.31;;;22.79;72.43
11190;BME280;5651;50.926;4.718;2022-08-03T07:02:55;101408.50;;;22.74;74.27
11190;BME280;5651;50.926;4.718;2022-08-03T07:05:21;101417.63;;;22.87;73.32
11190;BME280;5651;50.926;4.718;2022-08-03T07:07:47;101412.38;;;22.86;73.92
11190;BME280;5651;50.926;4.718;2022-08-03T07:10:13;101412.31;;;22.87;74.33
11190;BME280;5651;50.926;4.718;2022-08-03T07:12:39;101416.59;;;23.09;72.42
11190;BME280;5651;50.926;4.718;2022-08-03T07:15:06;101416.44;;;23.12;73.04
11190;BME280;5651;50.926;4.718;2022-08-03T07:17:34;101418.75;;;23.20;74.29
11190;BME280;5651;50.926;4.718;2022-08-03T07:20:01;101416.28;;;23.34;72.00
11190;BME280;5651;50.926;4.718;2022-08-03T07:22:28;101426.47;;;23.44;72.38
11190;BME280;5651;50.926;4.718;2022-08-03T07:24:54;101427.91;;;23.51;71.15
11190;BME280;5651;50.926;4.718;2022-08-03T07:27:19;101421.63;;;23.69;70.02
11190;BME280;5651;50.926;4.718;2022-08-03T07:29:45;101426.66;;;23.93;68.98
11190;BME280;5651;50.926;4.718;2022-08-03T07:32:11;101437.38;;;23.92;70.85
11190;BME280;5651;50.926;4.718;2022-08-03T07:34:37;101428.88;;;24.02;68.66
11190;BME280;5651;50.926;4.718;2022-08-03T07:37:02;101440.44;;;24.19;68.44
11190;BME280;5651;50.926;4.718;2022-08-03T07:39:28;101433.19;;;24.21;67.79
11190;BME280;5651;50.926;4.718;2022-08-03T07:41:54;101436.84;;;24.20;68.66
11190;BME280;5651;50.926;4.718;2022-08-03T07:44:20;101428.56;;;24.25;68.95
11190;BME280;5651;50.926;4.718;2022-08-03T07:46:46;101434.81;;;24.41;67.61
11190;BME280;5651;50.926;4.718;2022-08-03T07:49:12;101433.97;;;24.41;68.25
11190;BME280;5651;50.926;4.718;2022-08-03T07:51:38;101436.75;;;24.55;66.99
11190;BME280;5651;50.926;4.718;2022-08-03T07:54:04;101427.84;;;24.72;67.28
11190;BME280;5651;50.926;4.718;2022-08-03T07:56:30;101429.75;;;24.86;65.98
11190;BME280;5651;50.926;4.718;2022-08-03T07:58:56;101425.97;;;24.90;66.63
11190;BME280;5651;50.926;4.718;2022-08-03T08:01:22;101428.47;;;24.93;67.43
11190;BME280;5651;50.926;4.718;2022-08-03T08:03:48;101420.22;;;24.98;66.91
11190;BME280;5651;50.926;4.718;2022-08-03T08:06:14;101421.13;;;25.13;65.64
11190;BME280;5651;50.926;4.718;2022-08-03T08:08:41;101420.63;;;25.22;65.24
11190;BME280;5651;50.926;4.718;2022-08-03T08:11:06;101424.28;;;25.36;65.82
11190;BME280;5651;50.926;4.718;2022-08-03T08:13:32;101422.59;;;25.51;63.43
11190;BME280;5651;50.926;4.718;2022-08-03T08:15:59;101418.22;;;25.64;62.60
11190;BME280;5651;50.926;4.718;2022-08-03T08:18:24;101415.13;;;25.72;63.43
11190;BME280;5651;50.926;4.718;2022-08-03T08:20:50;101415.50;;;25.80;63.62
11190;BME280;5651;50.926;4.718;2022-08-03T08:23:16;101417.16;;;25.97;61.89
11190;BME280;5651;50.926;4.718;2022-08-03T08:25:51;101409.53;;;26.05;61.00
11190;BME280;5651;50.926;4.718;2022-08-03T08:28:19;101405.56;;;26.13;60.18
11190;BME280;5651;50.926;4.718;2022-08-03T08:30:45;101410.63;;;26.32;58.76
11190;BME280;5651;50.926;4.718;2022-08-03T08:33:11;101399.56;;;26.23;58.83
11190;BME280;5651;50.926;4.718;2022-08-03T08:35:37;101400.41;;;26.38;59.37
11190;BME280;5651;50.926;4.718;2022-08-03T08:38:03;101401.84;;;26.44;61.00
11190;BME280;5651;50.926;4.718;2022-08-03T08:40:29;101395.91;;;26.53;60.27
11190;BME280;5651;50.926;4.718;2022-08-03T08:42:55;101398.28;;;26.72;57.98
11190;BME280;5651;50.926;4.718;2022-08-03T08:45:20;101404.31;;;26.76;57.90
11190;BME280;5651;50.926;4.718;2022-08-03T08:47:48;101401.59;;;26.91;56.72
11190;BME280;5651;50.926;4.718;2022-08-03T08:50:18;101405.66;;;27.11;56.61
11190;BME280;5651;50.926;4.718;2022-08-03T08:52:46;101396.22;;;27.05;54.28
11190;BME280;5651;50.926;4.718;2022-08-03T08:55:22;101402.88;;;27.12;54.60
11190;BME280;5651;50.926;4.718;2022-08-03T08:57:51;101398.94;;;27.31;56.26
11190;BME280;5651;50.926;4.718;2022-08-03T09:00:17;101396.28;;;27.45;55.59
11190;BME280;5651;50.926;4.718;2022-08-03T09:02:44;101393.25;;;27.50;55.36
11190;BME280;5651;50.926;4.718;2022-08-03T09:05:11;101397.69;;;27.64;54.96
11190;BME280;5651;50.926;4.718;2022-08-03T09:07:38;101404.44;;;27.70;55.80
11190;BME280;5651;50.926;4.718;2022-08-03T09:10:06;101394.47;;;27.84;53.39
11190;BME280;5651;50.926;4.718;2022-08-03T09:12:41;101398.03;;;27.85;50.70
11190;BME280;5651;50.926;4.718;2022-08-03T09:15:17;101400.47;;;28.01;54.07
11190;BME280;5651;50.926;4.718;2022-08-03T09:17:43;101398.91;;;28.24;52.60
11190;BME280;5651;50.926;4.718;2022-08-03T09:20:09;101398.47;;;28.30;51.95
11190;BME280;5651;50.926;4.718;2022-08-03T09:22:50;101400.78;;;28.48;52.82
11190;BME280;5651;50.926;4.718;2022-08-03T09:25:16;101400.22;;;28.69;50.04
11190;BME280;5651;50.926;4.718;2022-08-03T09:27:43;101396.16;;;28.76;51.32
11190;BME280;5651;50.926;4.718;2022-08-03T09:30:17;101395.09;;;28.90;53.05
11190;BME280;5651;50.926;4.718;2022-08-03T09:32:43;101393.69;;;28.97;51.46
11190;BME280;5651;50.926;4.718;2022-08-03T09:35:13;101389.63;;;29.16;49.88
11190;BME280;5651;50.926;4.718;2022-08-03T09:37:39;101391.81;;;29.11;51.33
11190;BME280;5651;50.926;4.718;2022-08-03T09:40:06;101392.91;;;29.32;50.84
11190;BME280;5651;50.926;4.718;2022-08-03T09:42:32;101387.22;;;29.48;52.23
11190;BME280;5651;50.926;4.718;2022-08-03T09:45:04;101393.00;;;29.55;48.49
11190;BME280;5651;50.926;4.718;2022-08-03T09:47:33;101385.06;;;29.65;49.19
11190;BME280;5651;50.926;4.718;2022-08-03T09:50:08;101384.72;;;29.81;49.53
11190;BME280;5651;50.926;4.718;2022-08-03T09:52:36;101384.50;;;29.84;50.25
11190;BME280;5651;50.926;4.718;2022-08-03T09:55:10;101384.41;;;30.08;50.55
11190;BME280;5651;50.926;4.718;2022-08-03T09:57:37;101387.25;;;30.07;49.67
11190;BME280;5651;50.926;4.718;2022-08-03T10:02:34;101387.00;;;30.21;49.09
11190;BME280;5651;50.926;4.718;2022-08-03T10:05:01;101379.66;;;30.23;48.07
11190;BME280;5651;50.926;4.718;2022-08-03T10:07:26;101384.66;;;30.39;49.17
11190;BME280;5651;50.926;4.718;2022-08-03T10:09:58;101374.78;;;30.40;48.61
11190;BME280;5651;50.926;4.718;2022-08-03T10:12:24;101369.59;;;30.48;48.40
11190;BME280;5651;50.926;4.718;2022-08-03T10:14:50;101374.78;;;30.62;46.23
11190;BME280;5651;50.926;4.718;2022-08-03T10:17:18;101372.03;;;30.74;47.67
11190;BME280;5651;50.926;4.718;2022-08-03T10:19:44;101371.88;;;30.87;48.18
11190;BME280;5651;50.926;4.718;2022-08-03T10:24:47;101375.13;;;31.02;45.88
11190;BME280;5651;50.926;4.718;2022-08-03T10:27:14;101372.09;;;30.95;47.03
11190;BME280;5651;50.926;4.718;2022-08-03T10:29:44;101367.78;;;31.04;48.27
11190;BME280;5651;50.926;4.718;2022-08-03T10:32:17;101363.78;;;31.31;48.04
11190;BME280;5651;50.926;4.718;2022-08-03T10:34:46;101358.00;;;31.03;46.80
11190;BME280;5651;50.926;4.718;2022-08-03T10:37:16;101356.31;;;31.34;46.05
11190;BME280;5651;50.926;4.718;2022-08-03T10:39:43;101355.25;;;31.47;47.19
11190;BME280;5651;50.926;4.718;2022-08-03T10:42:22;101364.41;;;31.65;46.10
11190;BME280;5651;50.926;4.718;2022-08-03T10:44:52;101356.94;;;31.69;43.96
11190;BME280;5651;50.926;4.718;2022-08-03T10:47:19;101347.63;;;31.73;45.96
11190;BME280;5651;50.926;4.718;2022-08-03T10:49:47;101347.81;;;31.60;45.02
11190;BME280;5651;50.926;4.718;2022-08-03T10:52:13;101344.97;;;31.83;45.66
11190;BME280;5651;50.926;4.718;2022-08-03T10:54:42;101343.94;;;32.05;43.39
11190;BME280;5651;50.926;4.718;2022-08-03T10:57:50;101342.84;;;32.17;46.00
11190;BME280;5651;50.926;4.718;2022-08-03T11:00:20;101336.31;;;32.10;44.13
11190;BME280;5651;50.926;4.718;2022-08-03T11:03:05;101332.25;;;32.26;44.41
11190;BME280;5651;50.926;4.718;2022-08-03T11:05:44;101322.97;;;32.18;44.03
11190;BME280;5651;50.926;4.718;2022-08-03T11:08:27;101331.84;;;32.30;42.04
11190;BME280;5651;50.926;4.718;2022-08-03T11:10:56;101323.06;;;32.38;42.76
11190;BME280;5651;50.926;4.718;2022-08-03T11:13:23;101322.38;;;32.65;42.87
11190;BME280;5651;50.926;4.718;2022-08-03T11:15:52;101327.13;;;32.83;43.59
11190;BME280;5651;50.926;4.718;2022-08-03T11:18:19;101326.97;;;32.84;41.91
11190;BME280;5651;50.926;4.718;2022-08-03T11:20:55;101319.13;;;32.62;41.13
11190;BME280;5651;50.926;4.718;2022-08-03T11:26:16;101324.16;;;32.96;43.58
11190;BME280;5651;50.926;4.718;2022-08-03T11:28:44;101326.13;;;32.94;41.24
11190;BME280;5651;50.926;4.718;2022-08-03T11:34:12;101314.91;;;32.98;40.84
11190;BME280;5651;50.926;4.718;2022-08-03T11:39:44;101328.06;;;33.60;40.10
11190;BME280;5651;50.926;4.718;2022-08-03T11:44:50;101316.69;;;33.57;42.18
11190;BME280;5651;50.926;4.718;2022-08-03T11:47:16;101318.94;;;33.61;40.44
11190;BME280;5651;50.926;4.718;2022-08-03T11:49:45;101313.28;;;33.92;41.86
11190;BME280;5651;50.926;4.718;2022-08-03T11:52:12;101310.03;;;33.89;41.48
11190;BME280;5651;50.926;4.718;2022-08-03T11:54:38;101311.13;;;34.06;41.34
11190;BME280;5651;50.926;4.718;2022-08-03T11:57:05;101304.91;;;33.95;38.70
11190;BME280;5651;50.926;4.718;2022-08-03T11:59:35;101304.19;;;34.21;40.64
11190;BME280;5651;50.926;4.718;2022-08-03T12:02:08;101313.47;;;34.47;39.98
11190;BME280;5651;50.926;4.718;2022-08-03T12:07:19;101307.63;;;34.41;39.40
11190;BME280;5651;50.926;4.718;2022-08-03T12:10:11;101301.38;;;34.41;38.67
11190;BME280;5651;50.926;4.718;2022-08-03T12:12:37;101304.09;;;34.77;39.98
11190;BME280;5651;50.926;4.718;2022-08-03T12:15:05;101306.69;;;34.97;39.11
11190;BME280;5651;50.926;4.718;2022-08-03T12:17:35;101308.34;;;34.98;38.86
11190;BME280;5651;50.926;4.718;2022-08-03T12:20:02;101304.03;;;35.31;38.80
11190;BME280;5651;50.926;4.718;2022-08-03T12:22:36;101311.56;;;35.37;38.43
11190;BME280;5651;50.926;4.718;2022-08-03T12:25:03;101307.63;;;35.58;38.78
11190;BME280;5651;50.926;4.718;2022-08-03T12:27:29;101302.22;;;35.58;36.92
11190;BME280;5651;50.926;4.718;2022-08-03T12:29:56;101292.44;;;36.00;38.67
11190;BME280;5651;50.926;4.718;2022-08-03T12:32:23;101298.72;;;36.09;38.05
11190;BME280;5651;50.926;4.718;2022-08-03T12:34:50;101292.91;;;35.95;35.86
11190;BME280;5651;50.926;4.718;2022-08-03T12:37:20;101298.25;;;36.22;36.94
11190;BME280;5651;50.926;4.718;2022-08-03T12:39:53;101259.13;;;36.41;36.22
11190;BME280;5651;50.926;4.718;2022-08-03T12:42:20;101290.53;;;36.52;37.03
11190;BME280;5651;50.926;4.718;2022-08-03T12:44:47;101296.50;;;36.63;34.43
11190;BME280;5651;50.926;4.718;2022-08-03T12:47:15;101286.91;;;36.35;36.47
11190;BME280;5651;50.926;4.718;2022-08-03T12:49:59;101287.19;;;36.91;35.96
11190;BME280;5651;50.926;4.718;2022-08-03T12:52:25;101289.19;;;36.72;35.33
11190;BME280;5651;50.926;4.718;2022-08-03T12:57:20;101276.28;;;36.66;35.53
11190;BME280;5651;50.926;4.718;2022-08-03T12:59:46;101282.59;;;36.91;34.96
11190;BME280;5651;50.926;4.718;2022-08-03T13:02:19;101289.22;;;37.05;36.06
11190;BME280;5651;50.926;4.718;2022-08-03T13:04:46;101294.41;;;37.56;34.91
11190;BME280;5651;50.926;4.718;2022-08-03T13:07:13;101284.28;;;37.90;33.51
11190;BME280;5651;50.926;4.718;2022-08-03T13:09:53;101281.72;;;37.88;33.70
11190;BME280;5651;50.926;4.718;2022-08-03T13:12:22;101290.25;;;37.77;32.71
11190;BME280;5651;50.926;4.718;2022-08-03T13:14:50;101286.63;;;37.93;33.98
11190;BME280;5651;50.926;4.718;2022-08-03T13:17:16;101286.50;;;37.78;32.98
11190;BME280;5651;50.926;4.718;2022-08-03T13:19:43;101290.28;;;37.69;32.35
11190;BME280;5651;50.926;4.718;2022-08-03T13:22:15;101281.53;;;37.98;32.50
11190;BME280;5651;50.926;4.718;2022-08-03T13:24:41;101275.44;;;38.19;33.00
11190;BME280;5651;50.926;4.718;2022-08-03T13:27:08;101275.53;;;38.58;32.38
11190;BME280;5651;50.926;4.718;2022-08-03T13:29:34;101278.94;;;38.60;32.22
11190;BME280;5651;50.926;4.718;2022-08-03T13:32:01;101265.34;;;38.98;32.48
11190;BME280;5651;50.926;4.718;2022-08-03T13:34:27;101271.47;;;39.15;31.75
11190;BME280;5651;50.926;4.718;2022-08-03T13:36:53;101266.16;;;39.37;32.37
11190;BME280;5651;50.926;4.718;2022-08-03T13:39:19;101264.19;;;39.45;30.16
11190;BME280;5651;50.926;4.718;2022-08-03T13:41:45;101264.75;;;40.22;29.88